sensor_id;sensor_type;location;lat;lon;timestamp;temperature;humidity
42833;DHT22;64089;51.478;5.692;2023-03-23T00:01:22;11.80;99.90
42833;DHT22;64089;51.478;5.692;2023-03-23T00:03:50;11.80;99.90
42833;DHT22;64089;51.478;5.692;2023-03-23T00:06:17;11.80;99.90
42833;DHT22;64089;51.478;5.692;2023-03-23T00:08:47;11.90;99.90
42833;DHT22;64089;51.478;5.692;2023-03-23T00:11:25;11.90;99.90
42833;DHT22;64089;51.478;5.692;2023-03-23T00:13:55;12.00;99.90
42833;DHT22;64089;51.478;5.692;2023-03-23T00:16:24;12.00;99.90
42833;DHT22;64089;51.478;5.692;2023-03-23T00:19:05;12.00;99.90
42833;DHT22;64089;51.478;5.692;2023-03-23T00:21:33;12.00;99.90
42833;DHT22;64089;51.478;5.692;2023-03-23T00:24:06;12.00;99.90
42833;DHT22;64089;51.478;5.692;2023-03-23T00:26:33;12.00;99.90
42833;DHT22;64089;51.478;5.692;2023-03-23T00:29:04;12.00;99.90
42833;DHT22;64089;51.478;5.692;2023-03-23T00:31:30;12.10;99.90
42833;DHT22;64089;51.478;5.692;2023-03-23T00:33:59;12.00;99.90
42833;DHT22;64089;51.478;5.692;2023-03-23T00:36:27;12.10;99.90
42833;DHT22;64089;51.478;5.692;2023-03-23T00:38:53;12.10;99.90
42833;DHT22;64089;51.478;5.692;2023-03-23T00:41:19;12.10;99.90
42833;DHT22;64089;51.478;5.692;2023-03-23T00:43:45;12.10;99.90
42833;DHT22;64089;51.478;5.692;2023-03-23T00:46:11;12.10;99.90
42833;DHT22;64089;51.478;5.692;2023-03-23T00:48:37;12.20;99.90
42833;DHT22;64089;51.478;5.692;2023-03-23T00:51:10;12.20;99.90
42833;DHT22;64089;51.478;5.692;2023-03-23T00:53:36;12.20;99.90
42833;DHT22;64089;51.478;5.692;2023-03-23T00:56:02;12.10;99.90
42833;DHT22;64089;51.478;5.692;2023-03-23T00:58:28;12.20;99.90
42833;DHT22;64089;51.478;5.692;2023-03-23T01:00:54;12.20;99.90
42833;DHT22;64089;51.478;5.692;2023-03-23T01:03:19;12.20;99.90
42833;DHT22;64089;51.478;5.692;2023-03-23T01:05:45;12.30;99.90
42833;DHT22;64089;51.478;5.692;2023-03-23T01:08:17;12.30;99.90
42833;DHT22;64089;51.478;5.692;2023-03-23T01:10:44;12.30;99.90
42833;DHT22;64089;51.478;5.692;2023-03-23T01:13:10;12.30;99.90
42833;DHT22;64089;51.478;5.692;2023-03-23T01:15:36;12.30;99.90
42833;DHT22;64089;51.478;5.692;2023-03-23T01:18:02;12.30;99.90
42833;DHT22;64089;51.478;5.692;2023-03-23T01:20:28;12.30;99.90
42833;DHT22;64089;51.478;5.692;2023-03-23T01:22:59;12.30;99.90
42833;DHT22;64089;51.478;5.692;2023-03-23T01:25:29;12.30;99.90
42833;DHT22;64089;51.478;5.692;2023-03-23T01:27:55;12.30;99.90
42833;DHT22;64089;51.478;5.692;2023-03-23T01:30:21;12.30;99.90
42833;DHT22;64089;51.478;5.692;2023-03-23T01:32:46;12.30;99.90
42833;DHT22;64089;51.478;5.692;2023-03-23T01:35:13;12.30;99.90
42833;DHT22;64089;51.478;5.692;2023-03-23T01:37:39;12.20;99.90
42833;DHT22;64089;51.478;5.692;2023-03-23T01:40:05;12.20;99.90
42833;DHT22;64089;51.478;5.692;2023-03-23T01:42:34;12.20;99.90
42833;DHT22;64089;51.478;5.692;2023-03-23T01:47:59;12.20;99.90
42833;DHT22;64089;51.478;5.692;2023-03-23T01:50:28;12.30;99.90
42833;DHT22;64089;51.478;5.692;2023-03-23T01:52:57;12.30;99.90
42833;DHT22;64089;51.478;5.692;2023-03-23T01:55:26;12.30;99.90
42833;DHT22;64089;51.478;5.692;2023-03-23T01:57:54;12.20;99.90
42833;DHT22;64089;51.478;5.692;2023-03-23T02:00:21;12.20;99.90
42833;DHT22;64089;51.478;5.692;2023-03-23T02:02:48;12.20;99.90
42833;DHT22;64089;51.478;5.692;2023-03-23T02:05:34;12.20;99.90
42833;DHT22;64089;51.478;5.692;2023-03-23T02:08:03;12.30;99.90
42833;DHT22;64089;51.478;5.692;2023-03-23T02:10:32;12.30;99.90
42833;DHT22;64089;51.478;5.692;2023-03-23T02:12:59;12.30;99.90
42833;DHT22;64089;51.478;5.692;2023-03-23T02:15:31;12.30;99.90
42833;DHT22;64089;51.478;5.692;2023-03-23T02:18:04;12.30;99.90
42833;DHT22;64089;51.478;5.692;2023-03-23T02:21:06;12.20;99.90
42833;DHT22;64089;51.478;5.692;2023-03-23T02:26:50;12.20;99.90
42833;DHT22;64089;51.478;5.692;2023-03-23T02:29:45;12.20;99.90
42833;DHT22;64089;51.478;5.692;2023-03-23T02:35:28;12.30;99.90
42833;DHT22;64089;51.478;5.692;2023-03-23T02:37:59;12.40;99.90
42833;DHT22;64089;51.478;5.692;2023-03-23T02:40:33;12.40;99.90
42833;DHT22;64089;51.478;5.692;2023-03-23T02:43:02;12.40;99.90
42833;DHT22;64089;51.478;5.692;2023-03-23T02:45:30;12.40;99.90
42833;DHT22;64089;51.478;5.692;2023-03-23T02:47:59;12.30;99.90
42833;DHT22;64089;51.478;5.692;2023-03-23T02:50:27;12.40;99.90
42833;DHT22;64089;51.478;5.692;2023-03-23T02:52:56;12.40;99.90
42833;DHT22;64089;51.478;5.692;2023-03-23T02:55:24;12.40;99.90
42833;DHT22;64089;51.478;5.692;2023-03-23T02:57:52;12.40;99.90
42833;DHT22;64089;51.478;5.692;2023-03-23T03:00:21;12.40;99.90
42833;DHT22;64089;51.478;5.692;2023-03-23T03:02:52;12.40;99.90
42833;DHT22;64089;51.478;5.692;2023-03-23T03:05:44;12.40;99.90
42833;DHT22;64089;51.478;5.692;2023-03-23T03:09:26;12.50;99.90
42833;DHT22;64089;51.478;5.692;2023-03-23T03:11:20;12.50;99.90
42833;DHT22;64089;51.478;5.692;2023-03-23T03:14:10;12.50;99.90
42833;DHT22;64089;51.478;5.692;2023-03-23T03:17:05;12.50;99.90
42833;DHT22;64089;51.478;5.692;2023-03-23T03:19:38;12.40;99.90
42833;DHT22;64089;51.478;5.692;2023-03-23T03:22:06;12.40;99.90
42833;DHT22;64089;51.478;5.692;2023-03-23T03:24:33;12.50;99.90
42833;DHT22;64089;51.478;5.692;2023-03-23T03:27:01;12.50;99.90
42833;DHT22;64089;51.478;5.692;2023-03-23T03:29:35;12.50;99.90
42833;DHT22;64089;51.478;5.692;2023-03-23T03:32:03;12.40;99.90
42833;DHT22;64089;51.478;5.692;2023-03-23T03:34:32;12.40;99.90
42833;DHT22;64089;51.478;5.692;2023-03-23T03:36:59;12.40;99.90
42833;DHT22;64089;51.478;5.692;2023-03-23T03:39:26;12.40;99.90
42833;DHT22;64089;51.478;5.692;2023-03-23T03:41:52;12.40;99.90
42833;DHT22;64089;51.478;5.692;2023-03-23T03:44:17;12.40;99.90
42833;DHT22;64089;51.478;5.692;2023-03-23T03:46:43;12.50;99.90
42833;DHT22;64089;51.478;5.692;2023-03-23T03:49:10;12.50;99.90
42833;DHT22;64089;51.478;5.692;2023-03-23T03:51:39;12.50;99.90
42833;DHT22;64089;51.478;5.692;2023-03-23T03:54:05;12.50;99.90
42833;DHT22;64089;51.478;5.692;2023-03-23T03:56:31;12.50;99.90
42833;DHT22;64089;51.478;5.692;2023-03-23T03:58:58;12.50;99.90
42833;DHT22;64089;51.478;5.692;2023-03-23T04:01:24;12.50;99.90
42833;DHT22;64089;51.478;5.692;2023-03-23T04:03:50;12.50;99.90
42833;DHT22;64089;51.478;5.692;2023-03-23T04:06:17;12.60;99.90
42833;DHT22;64089;51.478;5.692;2023-03-23T04:08:43;12.60;99.90
42833;DHT22;64089;51.478;5.692;2023-03-23T04:11:10;12.50;99.90
42833;DHT22;64089;51.478;5.692;2023-03-23T04:13:37;12.50;99.90
42833;DHT22;64089;51.478;5.692;2023-03-23T04:16:04;12.50;99.90
42833;DHT22;64089;51.478;5.692;2023-03-23T04:18:29;12.50;99.90
42833;DHT22;64089;51.478;5.692;2023-03-23T04:20:58;12.50;99.90
42833;DHT22;64089;51.478;5.692;2023-03-23T04:23:26;12.50;99.90
42833;DHT22;64089;51.478;5.692;2023-03-23T04:25:53;12.50;99.90
42833;DHT22;64089;51.478;5.692;2023-03-23T04:28:23;12.50;99.90
42833;DHT22;64089;51.478;5.692;2023-03-23T04:30:50;12.50;99.90
42833;DHT22;64089;51.478;5.692;2023-03-23T04:33:19;12.60;99.90
42833;DHT22;64089;51.478;5.692;2023-03-23T04:35:47;12.60;99.90
42833;DHT22;64089;51.478;5.692;2023-03-23T04:38:15;12.60;99.90
42833;DHT22;64089;51.478;5.692;2023-03-23T04:40:43;12.60;99.90
42833;DHT22;64089;51.478;5.692;2023-03-23T04:43:09;12.60;99.90
42833;DHT22;64089;51.478;5.692;2023-03-23T04:45:38;12.60;99.90
42833;DHT22;64089;51.478;5.692;2023-03-23T04:48:07;12.60;99.90
42833;DHT22;64089;51.478;5.692;2023-03-23T04:50:34;12.60;99.90
42833;DHT22;64089;51.478;5.692;2023-03-23T04:53:01;12.50;99.90
42833;DHT22;64089;51.478;5.692;2023-03-23T04:55:34;12.50;99.90
42833;DHT22;64089;51.478;5.692;2023-03-23T04:58:05;12.60;99.90
42833;DHT22;64089;51.478;5.692;2023-03-23T05:00:32;12.50;99.90
42833;DHT22;64089;51.478;5.692;2023-03-23T05:02:58;12.50;99.90
42833;DHT22;64089;51.478;5.692;2023-03-23T05:05:24;12.50;99.90
42833;DHT22;64089;51.478;5.692;2023-03-23T05:07:51;12.50;99.90
42833;DHT22;64089;51.478;5.692;2023-03-23T05:10:17;12.60;99.90
42833;DHT22;64089;51.478;5.692;2023-03-23T05:12:43;12.50;99.90
42833;DHT22;64089;51.478;5.692;2023-03-23T05:15:14;12.50;99.90
42833;DHT22;64089;51.478;5.692;2023-03-23T05:17:40;12.50;99.90
42833;DHT22;64089;51.478;5.692;2023-03-23T05:20:13;12.50;99.90
42833;DHT22;64089;51.478;5.692;2023-03-23T05:22:41;12.50;99.90
42833;DHT22;64089;51.478;5.692;2023-03-23T05:25:08;12.50;99.90
42833;DHT22;64089;51.478;5.692;2023-03-23T05:27:37;12.60;99.90
42833;DHT22;64089;51.478;5.692;2023-03-23T05:30:04;12.60;99.90
42833;DHT22;64089;51.478;5.692;2023-03-23T05:32:30;12.60;99.90
42833;DHT22;64089;51.478;5.692;2023-03-23T05:34:57;12.50;99.90
42833;DHT22;64089;51.478;5.692;2023-03-23T05:37:24;12.50;99.90
42833;DHT22;64089;51.478;5.692;2023-03-23T05:39:50;12.40;99.90
42833;DHT22;64089;51.478;5.692;2023-03-23T05:42:22;12.30;99.90
42833;DHT22;64089;51.478;5.692;2023-03-23T05:44:48;12.10;99.90
42833;DHT22;64089;51.478;5.692;2023-03-23T05:47:14;12.00;99.90
42833;DHT22;64089;51.478;5.692;2023-03-23T05:49:40;11.90;99.90
42833;DHT22;64089;51.478;5.692;2023-03-23T05:52:06;11.80;99.90
42833;DHT22;64089;51.478;5.692;2023-03-23T05:54:32;11.70;99.90
42833;DHT22;64089;51.478;5.692;2023-03-23T05:56:59;11.80;99.90
42833;DHT22;64089;51.478;5.692;2023-03-23T05:59:25;11.80;99.90
42833;DHT22;64089;51.478;5.692;2023-03-23T06:01:53;11.80;99.90
42833;DHT22;64089;51.478;5.692;2023-03-23T06:04:19;11.80;99.90
42833;DHT22;64089;51.478;5.692;2023-03-23T06:06:46;11.80;99.90
42833;DHT22;64089;51.478;5.692;2023-03-23T06:09:11;11.80;99.90
42833;DHT22;64089;51.478;5.692;2023-03-23T06:11:37;11.90;99.90
42833;DHT22;64089;51.478;5.692;2023-03-23T06:14:03;11.90;99.90
42833;DHT22;64089;51.478;5.692;2023-03-23T06:16:29;11.90;99.90
42833;DHT22;64089;51.478;5.692;2023-03-23T06:18:54;11.90;99.90
42833;DHT22;64089;51.478;5.692;2023-03-23T06:21:22;11.90;99.90
42833;DHT22;64089;51.478;5.692;2023-03-23T06:23:48;11.90;99.90
42833;DHT22;64089;51.478;5.692;2023-03-23T06:26:15;11.90;99.90
42833;DHT22;64089;51.478;5.692;2023-03-23T06:28:43;11.90;99.90
42833;DHT22;64089;51.478;5.692;2023-03-23T06:31:08;12.00;99.90
42833;DHT22;64089;51.478;5.692;2023-03-23T06:33:36;12.00;99.90
42833;DHT22;64089;51.478;5.692;2023-03-23T06:36:03;12.00;99.90
42833;DHT22;64089;51.478;5.692;2023-03-23T06:38:30;12.00;99.90
42833;DHT22;64089;51.478;5.692;2023-03-23T06:40:59;12.10;99.90
42833;DHT22;64089;51.478;5.692;2023-03-23T06:43:24;12.10;99.90
42833;DHT22;64089;51.478;5.692;2023-03-23T06:45:51;12.20;99.90
42833;DHT22;64089;51.478;5.692;2023-03-23T06:48:17;12.20;99.90
42833;DHT22;64089;51.478;5.692;2023-03-23T06:50:46;12.20;99.90
42833;DHT22;64089;51.478;5.692;2023-03-23T06:53:12;12.30;99.90
42833;DHT22;64089;51.478;5.692;2023-03-23T06:55:38;12.40;99.90
42833;DHT22;64089;51.478;5.692;2023-03-23T06:58:08;12.30;99.90
42833;DHT22;64089;51.478;5.692;2023-03-23T07:00:34;12.50;99.90
42833;DHT22;64089;51.478;5.692;2023-03-23T07:02:59;12.50;99.90
42833;DHT22;64089;51.478;5.692;2023-03-23T07:05:25;12.50;99.90
42833;DHT22;64089;51.478;5.692;2023-03-23T07:07:51;12.50;99.90
42833;DHT22;64089;51.478;5.692;2023-03-23T07:10:17;12.50;99.90
42833;DHT22;64089;51.478;5.692;2023-03-23T07:12:43;12.40;99.90
42833;DHT22;64089;51.478;5.692;2023-03-23T07:15:09;12.40;99.90
42833;DHT22;64089;51.478;5.692;2023-03-23T07:17:37;12.30;99.90
42833;DHT22;64089;51.478;5.692;2023-03-23T07:20:04;12.30;99.90
42833;DHT22;64089;51.478;5.692;2023-03-23T07:22:30;12.20;99.90
42833;DHT22;64089;51.478;5.692;2023-03-23T07:24:56;12.20;99.90
42833;DHT22;64089;51.478;5.692;2023-03-23T07:27:22;12.20;99.90
42833;DHT22;64089;51.478;5.692;2023-03-23T07:29:47;12.20;99.90
42833;DHT22;64089;51.478;5.692;2023-03-23T07:32:13;12.10;99.90
42833;DHT22;64089;51.478;5.692;2023-03-23T07:34:39;12.10;99.90
42833;DHT22;64089;51.478;5.692;2023-03-23T07:37:05;12.10;99.90
42833;DHT22;64089;51.478;5.692;2023-03-23T07:39:31;12.20;99.90
42833;DHT22;64089;51.478;5.692;2023-03-23T07:41:57;12.20;99.90
42833;DHT22;64089;51.478;5.692;2023-03-23T07:44:23;12.20;99.90
42833;DHT22;64089;51.478;5.692;2023-03-23T07:46:49;12.30;99.90
42833;DHT22;64089;51.478;5.692;2023-03-23T07:49:15;12.20;99.90
42833;DHT22;64089;51.478;5.692;2023-03-23T07:51:40;12.10;99.90
42833;DHT22;64089;51.478;5.692;2023-03-23T07:54:07;12.00;99.90
42833;DHT22;64089;51.478;5.692;2023-03-23T07:56:36;11.70;99.90
42833;DHT22;64089;51.478;5.692;2023-03-23T07:59:03;11.60;99.90
42833;DHT22;64089;51.478;5.692;2023-03-23T08:01:30;11.30;99.90
42833;DHT22;64089;51.478;5.692;2023-03-23T08:03:56;11.10;99.90
42833;DHT22;64089;51.478;5.692;2023-03-23T08:06:23;10.70;99.90
42833;DHT22;64089;51.478;5.692;2023-03-23T08:08:49;10.40;99.90
42833;DHT22;64089;51.478;5.692;2023-03-23T08:11:16;10.30;99.90
42833;DHT22;64089;51.478;5.692;2023-03-23T08:13:42;10.30;99.90
42833;DHT22;64089;51.478;5.692;2023-03-23T08:16:09;10.20;99.90
42833;DHT22;64089;51.478;5.692;2023-03-23T08:18:35;10.20;99.90
42833;DHT22;64089;51.478;5.692;2023-03-23T08:21:03;10.30;99.90
42833;DHT22;64089;51.478;5.692;2023-03-23T08:23:30;10.30;99.90
42833;DHT22;64089;51.478;5.692;2023-03-23T08:25:56;10.30;99.90
42833;DHT22;64089;51.478;5.692;2023-03-23T08:28:22;10.30;99.90
42833;DHT22;64089;51.478;5.692;2023-03-23T08:30:49;10.40;99.90
42833;DHT22;64089;51.478;5.692;2023-03-23T08:33:15;10.40;99.90
42833;DHT22;64089;51.478;5.692;2023-03-23T08:35:41;10.50;99.90
42833;DHT22;64089;51.478;5.692;2023-03-23T08:38:08;10.60;99.90
42833;DHT22;64089;51.478;5.692;2023-03-23T08:40:33;10.70;99.90
42833;DHT22;64089;51.478;5.692;2023-03-23T08:42:59;10.80;99.90
42833;DHT22;64089;51.478;5.692;2023-03-23T08:45:25;10.80;99.90
42833;DHT22;64089;51.478;5.692;2023-03-23T08:47:52;10.80;99.90
42833;DHT22;64089;51.478;5.692;2023-03-23T08:50:23;10.90;99.90
42833;DHT22;64089;51.478;5.692;2023-03-23T08:52:49;10.90;99.90
42833;DHT22;64089;51.478;5.692;2023-03-23T08:55:16;11.00;99.90
42833;DHT22;64089;51.478;5.692;2023-03-23T08:57:43;11.20;99.90
42833;DHT22;64089;51.478;5.692;2023-03-23T09:00:12;11.30;99.90
42833;DHT22;64089;51.478;5.692;2023-03-23T09:02:47;11.20;99.90
42833;DHT22;64089;51.478;5.692;2023-03-23T09:05:15;11.20;99.90
42833;DHT22;64089;51.478;5.692;2023-03-23T09:07:44;11.20;99.90
42833;DHT22;64089;51.478;5.692;2023-03-23T09:10:10;11.40;99.90
42833;DHT22;64089;51.478;5.692;2023-03-23T09:12:36;11.40;99.90
42833;DHT22;64089;51.478;5.692;2023-03-23T09:15:05;11.50;99.90
42833;DHT22;64089;51.478;5.692;2023-03-23T09:17:38;11.70;99.90
42833;DHT22;64089;51.478;5.692;2023-03-23T09:20:05;11.90;99.90
42833;DHT22;64089;51.478;5.692;2023-03-23T09:22:39;12.10;99.90
42833;DHT22;64089;51.478;5.692;2023-03-23T09:25:06;12.10;99.90
42833;DHT22;64089;51.478;5.692;2023-03-23T09:27:32;12.10;99.90
42833;DHT22;64089;51.478;5.692;2023-03-23T09:29:58;11.90;99.90
42833;DHT22;64089;51.478;5.692;2023-03-23T09:32:24;11.70;99.90
42833;DHT22;64089;51.478;5.692;2023-03-23T09:34:50;11.50;99.90
42833;DHT22;64089;51.478;5.692;2023-03-23T09:37:16;11.40;99.90
42833;DHT22;64089;51.478;5.692;2023-03-23T09:39:42;11.20;99.90
42833;DHT22;64089;51.478;5.692;2023-03-23T09:48:38;11.10;99.90
42833;DHT22;64089;51.478;5.692;2023-03-23T09:53:44;11.20;99.90
42833;DHT22;64089;51.478;5.692;2023-03-23T09:56:13;11.10;99.90
42833;DHT22;64089;51.478;5.692;2023-03-23T09:58:49;11.20;99.90
42833;DHT22;64089;51.478;5.692;2023-03-23T10:03:59;11.50;99.90
42833;DHT22;64089;51.478;5.692;2023-03-23T10:06:27;11.60;99.90
42833;DHT22;64089;51.478;5.692;2023-03-23T10:08:57;11.70;99.90
42833;DHT22;64089;51.478;5.692;2023-03-23T10:17:14;11.70;99.90
42833;DHT22;64089;51.478;5.692;2023-03-23T10:20:05;11.60;99.90
42833;DHT22;64089;51.478;5.692;2023-03-23T10:25:21;11.70;99.90
42833;DHT22;64089;51.478;5.692;2023-03-23T10:30:28;12.10;99.90
42833;DHT22;64089;51.478;5.692;2023-03-23T10:33:02;12.10;99.90
42833;DHT22;64089;51.478;5.692;2023-03-23T10:35:34;12.20;99.90
42833;DHT22;64089;51.478;5.692;2023-03-23T10:38:14;12.10;99.90
42833;DHT22;64089;51.478;5.692;2023-03-23T10:40:52;12.00;99.90
42833;DHT22;64089;51.478;5.692;2023-03-23T10:43:19;11.90;99.90
42833;DHT22;64089;51.478;5.692;2023-03-23T10:45:51;11.90;99.90
42833;DHT22;64089;51.478;5.692;2023-03-23T10:48:27;12.10;99.90
42833;DHT22;64089;51.478;5.692;2023-03-23T10:50:57;12.30;99.90
42833;DHT22;64089;51.478;5.692;2023-03-23T10:53:29;12.40;99.90
42833;DHT22;64089;51.478;5.692;2023-03-23T10:55:58;12.60;99.90
42833;DHT22;64089;51.478;5.692;2023-03-23T10:58:30;12.80;99.90
42833;DHT22;64089;51.478;5.692;2023-03-23T11:00:58;13.00;99.90
42833;DHT22;64089;51.478;5.692;2023-03-23T11:03:47;13.40;99.90
42833;DHT22;64089;51.478;5.692;2023-03-23T11:06:29;13.70;99.90
42833;DHT22;64089;51.478;5.692;2023-03-23T11:09:01;13.80;99.90
42833;DHT22;64089;51.478;5.692;2023-03-23T11:11:31;13.80;99.90
42833;DHT22;64089;51.478;5.692;2023-03-23T11:14:02;13.90;99.90
42833;DHT22;64089;51.478;5.692;2023-03-23T11:16:31;14.00;99.90
42833;DHT22;64089;51.478;5.692;2023-03-23T11:18:58;14.20;99.90
42833;DHT22;64089;51.478;5.692;2023-03-23T11:21:25;14.30;99.90
42833;DHT22;64089;51.478;5.692;2023-03-23T11:23:58;14.20;99.90
42833;DHT22;64089;51.478;5.692;2023-03-23T11:26:29;14.20;99.90
42833;DHT22;64089;51.478;5.692;2023-03-23T11:29:15;14.30;99.90
42833;DHT22;64089;51.478;5.692;2023-03-23T11:31:47;14.50;99.90
42833;DHT22;64089;51.478;5.692;2023-03-23T11:36:50;14.30;99.90
42833;DHT22;64089;51.478;5.692;2023-03-23T11:41:52;14.40;99.90
42833;DHT22;64089;51.478;5.692;2023-03-23T11:44:18;14.50;99.90
42833;DHT22;64089;51.478;5.692;2023-03-23T11:47:05;14.60;99.90
42833;DHT22;64089;51.478;5.692;2023-03-23T11:52:45;15.20;99.90
42833;DHT22;64089;51.478;5.692;2023-03-23T11:55:18;15.30;99.90
42833;DHT22;64089;51.478;5.692;2023-03-23T11:57:44;15.50;99.90
42833;DHT22;64089;51.478;5.692;2023-03-23T12:00:18;15.30;99.90
42833;DHT22;64089;51.478;5.692;2023-03-23T12:02:56;15.30;99.90
42833;DHT22;64089;51.478;5.692;2023-03-23T12:05:47;15.40;99.90
42833;DHT22;64089;51.478;5.692;2023-03-23T12:08:45;15.40;99.90
42833;DHT22;64089;51.478;5.692;2023-03-23T12:11:28;15.50;99.90
42833;DHT22;64089;51.478;5.692;2023-03-23T12:22:30;15.70;99.90
42833;DHT22;64089;51.478;5.692;2023-03-23T12:25:05;15.90;99.90
42833;DHT22;64089;51.478;5.692;2023-03-23T12:27:58;15.80;99.90
42833;DHT22;64089;51.478;5.692;2023-03-23T12:30:38;15.90;99.90
42833;DHT22;64089;51.478;5.692;2023-03-23T12:35:49;16.10;99.90
42833;DHT22;64089;51.478;5.692;2023-03-23T12:41:52;16.00;99.90
42833;DHT22;64089;51.478;5.692;2023-03-23T12:44:03;15.70;99.90
42833;DHT22;64089;51.478;5.692;2023-03-23T12:51:55;15.70;99.90
42833;DHT22;64089;51.478;5.692;2023-03-23T12:54:46;15.90;99.90
42833;DHT22;64089;51.478;5.692;2023-03-23T12:57:56;16.30;99.90
42833;DHT22;64089;51.478;5.692;2023-03-23T13:04:07;15.90;99.90
42833;DHT22;64089;51.478;5.692;2023-03-23T13:06:42;16.20;99.90
42833;DHT22;64089;51.478;5.692;2023-03-23T13:09:43;16.50;99.90
42833;DHT22;64089;51.478;5.692;2023-03-23T13:12:13;16.40;99.90
42833;DHT22;64089;51.478;5.692;2023-03-23T13:22:56;16.80;99.90
42833;DHT22;64089;51.478;5.692;2023-03-23T13:27:58;16.20;99.90
42833;DHT22;64089;51.478;5.692;2023-03-23T13:30:25;16.10;99.90
42833;DHT22;64089;51.478;5.692;2023-03-23T13:33:05;16.20;99.90
42833;DHT22;64089;51.478;5.692;2023-03-23T13:35:36;16.20;99.90
42833;DHT22;64089;51.478;5.692;2023-03-23T13:38:13;16.20;99.90
42833;DHT22;64089;51.478;5.692;2023-03-23T13:40:43;16.20;99.90
42833;DHT22;64089;51.478;5.692;2023-03-23T13:43:10;16.30;99.90
42833;DHT22;64089;51.478;5.692;2023-03-23T13:45:44;16.20;99.90
42833;DHT22;64089;51.478;5.692;2023-03-23T13:50:58;16.00;99.90
42833;DHT22;64089;51.478;5.692;2023-03-23T13:53:30;15.90;99.90
42833;DHT22;64089;51.478;5.692;2023-03-23T13:56:17;15.80;99.90
42833;DHT22;64089;51.478;5.692;2023-03-23T13:59:03;15.70;99.90
42833;DHT22;64089;51.478;5.692;2023-03-23T14:01:35;15.50;99.90
42833;DHT22;64089;51.478;5.692;2023-03-23T14:04:04;15.50;99.90
42833;DHT22;64089;51.478;5.692;2023-03-23T14:06:35;15.40;99.90
42833;DHT22;64089;51.478;5.692;2023-03-23T14:09:07;15.30;99.90
42833;DHT22;64089;51.478;5.692;2023-03-23T14:12:05;15.20;99.90
42833;DHT22;64089;51.478;5.692;2023-03-23T14:14:46;15.10;99.90
42833;DHT22;64089;51.478;5.692;2023-03-23T14:19:40;14.50;99.90
42833;DHT22;64089;51.478;5.692;2023-03-23T14:22:18;13.60;99.90
42833;DHT22;64089;51.478;5.692;2023-03-23T14:24:44;13.00;99.90
42833;DHT22;64089;51.478;5.692;2023-03-23T14:27:17;12.90;99.90
42833;DHT22;64089;51.478;5.692;2023-03-23T14:29:44;12.90;99.90
42833;DHT22;64089;51.478;5.692;2023-03-23T14:32:16;12.90;99.90
42833;DHT22;64089;51.478;5.692;2023-03-23T14:34:43;13.00;99.90
42833;DHT22;64089;51.478;5.692;2023-03-23T14:37:13;13.10;99.90
42833;DHT22;64089;51.478;5.692;2023-03-23T14:39:40;13.10;99.90
42833;DHT22;64089;51.478;5.692;2023-03-23T14:42:14;13.20;99.90
42833;DHT22;64089;51.478;5.692;2023-03-23T14:44:43;13.10;99.90
42833;DHT22;64089;51.478;5.692;2023-03-23T14:47:19;13.10;99.90
42833;DHT22;64089;51.478;5.692;2023-03-23T14:49:46;13.10;99.90
42833;DHT22;64089;51.478;5.692;2023-03-23T14:52:17;13.10;99.90
42833;DHT22;64089;51.478;5.692;2023-03-23T14:54:44;13.20;99.90
42833;DHT22;64089;51.478;5.692;2023-03-23T14:57:16;13.30;99.90
42833;DHT22;64089;51.478;5.692;2023-03-23T14:59:43;13.60;99.90
42833;DHT22;64089;51.478;5.692;2023-03-23T15:02:22;13.80;99.90
42833;DHT22;64089;51.478;5.692;2023-03-23T15:04:54;13.80;99.90
42833;DHT22;64089;51.478;5.692;2023-03-23T15:07:25;13.60;99.90
42833;DHT22;64089;51.478;5.692;2023-03-23T15:09:52;13.50;99.90
42833;DHT22;64089;51.478;5.692;2023-03-23T15:12:25;13.30;99.90
42833;DHT22;64089;51.478;5.692;2023-03-23T15:14:54;13.00;99.90
42833;DHT22;64089;51.478;5.692;2023-03-23T15:17:33;12.90;99.90
42833;DHT22;64089;51.478;5.692;2023-03-23T15:20:17;13.00;99.90
42833;DHT22;64089;51.478;5.692;2023-03-23T15:22:48;13.30;99.90
42833;DHT22;64089;51.478;5.692;2023-03-23T15:25:30;13.50;99.90
42833;DHT22;64089;51.478;5.692;2023-03-23T15:28:18;13.60;99.90
42833;DHT22;64089;51.478;5.692;2023-03-23T15:30:50;13.50;99.90
42833;DHT22;64089;51.478;5.692;2023-03-23T15:33:16;13.50;99.90
42833;DHT22;64089;51.478;5.692;2023-03-23T15:35:50;13.60;99.90
42833;DHT22;64089;51.478;5.692;2023-03-23T15:38:23;13.70;99.90
42833;DHT22;64089;51.478;5.692;2023-03-23T15:41:01;13.70;99.90
42833;DHT22;64089;51.478;5.692;2023-03-23T15:43:31;13.60;99.90
42833;DHT22;64089;51.478;5.692;2023-03-23T15:48:30;13.50;99.90
42833;DHT22;64089;51.478;5.692;2023-03-23T15:50:56;13.50;99.90
42833;DHT22;64089;51.478;5.692;2023-03-23T15:53:35;13.40;99.90
42833;DHT22;64089;51.478;5.692;2023-03-23T15:56:04;13.40;99.90
42833;DHT22;64089;51.478;5.692;2023-03-23T15:58:31;13.30;99.90
42833;DHT22;64089;51.478;5.692;2023-03-23T16:00:58;13.30;99.90
42833;DHT22;64089;51.478;5.692;2023-03-23T16:03:29;13.20;99.90
42833;DHT22;64089;51.478;5.692;2023-03-23T16:05:57;13.30;99.90
42833;DHT22;64089;51.478;5.692;2023-03-23T16:08:25;13.30;99.90
42833;DHT22;64089;51.478;5.692;2023-03-23T16:10:50;13.20;99.90
42833;DHT22;64089;51.478;5.692;2023-03-23T16:13:16;13.20;99.90
42833;DHT22;64089;51.478;5.692;2023-03-23T16:15:43;13.10;99.90
42833;DHT22;64089;51.478;5.692;2023-03-23T16:18:17;13.10;99.90
42833;DHT22;64089;51.478;5.692;2023-03-23T16:20:43;13.10;99.90
42833;DHT22;64089;51.478;5.692;2023-03-23T16:23:09;13.30;99.90
42833;DHT22;64089;51.478;5.692;2023-03-23T16:25:34;13.30;99.90
42833;DHT22;64089;51.478;5.692;2023-03-23T16:28:00;13.30;99.90
42833;DHT22;64089;51.478;5.692;2023-03-23T16:30:28;13.40;99.90
42833;DHT22;64089;51.478;5.692;2023-03-23T16:32:54;13.30;99.90
42833;DHT22;64089;51.478;5.692;2023-03-23T16:35:20;13.30;99.90
42833;DHT22;64089;51.478;5.692;2023-03-23T16:37:51;13.20;99.90
42833;DHT22;64089;51.478;5.692;2023-03-23T16:40:18;13.20;99.90
42833;DHT22;64089;51.478;5.692;2023-03-23T16:42:44;13.20;99.90
42833;DHT22;64089;51.478;5.692;2023-03-23T16:45:11;13.20;99.90
42833;DHT22;64089;51.478;5.692;2023-03-23T16:47:37;13.30;99.90
42833;DHT22;64089;51.478;5.692;2023-03-23T16:50:05;13.40;99.90
42833;DHT22;64089;51.478;5.692;2023-03-23T16:52:31;13.60;99.90
42833;DHT22;64089;51.478;5.692;2023-03-23T16:54:57;13.70;99.90
42833;DHT22;64089;51.478;5.692;2023-03-23T16:57:23;13.70;99.90
42833;DHT22;64089;51.478;5.692;2023-03-23T16:59:49;13.70;99.90
42833;DHT22;64089;51.478;5.692;2023-03-23T17:02:15;13.70;99.90
42833;DHT22;64089;51.478;5.692;2023-03-23T17:04:44;13.50;99.90
42833;DHT22;64089;51.478;5.692;2023-03-23T17:07:11;13.50;99.90
42833;DHT22;64089;51.478;5.692;2023-03-23T17:09:38;13.30;99.90